createdAt,value
2019-02-28T00:00:46.237Z,45.15
2019-02-28T00:03:26.133Z,44.98
2019-02-28T00:05:54.982Z,44.64
2019-02-28T00:08:25.672Z,44.78
2019-02-28T00:10:55.473Z,44.34
2019-02-28T00:13:25.456Z,43.94
2019-02-28T00:15:56.450Z,44.04
2019-02-28T00:18:31.509Z,43.92
2019-02-28T00:21:06.019Z,43.26
2019-02-28T00:23:33.416Z,43.01
2019-02-28T00:26:03.234Z,43.09
2019-02-28T00:28:32.988Z,43.33
2019-02-28T00:31:07.120Z,42.98
2019-02-28T00:33:37.415Z,43.05
2019-02-28T00:36:09.263Z,43.15
2019-02-28T00:38:39.049Z,43.32
2019-02-28T00:41:10.250Z,42.38
2019-02-28T00:43:41.788Z,42.40
2019-02-28T00:46:12.136Z,42.32
2019-02-28T00:48:41.930Z,41.90
2019-02-28T00:51:13.062Z,41.42
2019-02-28T00:53:43.357Z,41.41
2019-02-28T00:56:13.302Z,41.05
2019-02-28T00:58:46.105Z,40.91
2019-02-28T01:01:19.887Z,40.96
2019-02-28T01:03:52.963Z,40.78
2019-02-28T01:06:25.084Z,40.97
2019-02-28T01:08:56.082Z,40.87
2019-02-28T01:11:29.342Z,40.58
2019-02-28T01:14:02.477Z,40.46
2019-02-28T01:16:34.593Z,40.34
2019-02-28T01:19:08.869Z,40.75
2019-02-28T01:21:36.496Z,40.51
2019-02-28T01:24:07.014Z,40.59
2019-02-28T01:26:43.309Z,40.81
2019-02-28T01:29:13.797Z,41.45
2019-02-28T01:31:47.904Z,42.19
2019-02-28T01:34:18.676Z,41.86
2019-02-28T01:36:50.170Z,41.70
2019-02-28T01:39:22.635Z,41.69
2019-02-28T01:41:58.784Z,41.67
2019-02-28T01:44:35.595Z,41.87
2019-02-28T01:47:09.706Z,41.67
2019-02-28T01:49:41.516Z,41.60
2019-02-28T01:52:17.584Z,40.47
2019-02-28T01:54:49.396Z,40.77
2019-02-28T01:57:19.857Z,41.02
2019-02-28T01:59:53.664Z,41.38
2019-02-28T02:02:28.879Z,41.88
2019-02-28T02:05:04.328Z,41.28
2019-02-28T02:07:36.549Z,40.85
2019-02-28T02:10:11.405Z,40.69
2019-02-28T02:12:42.667Z,42.18
2019-02-28T02:15:17.817Z,40.85
2019-02-28T02:17:48.862Z,42.89
2019-02-28T02:20:23.394Z,43.69
2019-02-28T02:22:54.443Z,43.63
2019-02-28T02:25:25.839Z,43.68
2019-02-28T02:27:55.996Z,44.23
2019-02-28T02:30:27.312Z,44.24
2019-02-28T02:32:57.087Z,43.97
2019-02-28T02:35:28.176Z,44.78
2019-02-28T02:38:03.476Z,46.01
2019-02-28T02:40:34.653Z,45.83
2019-02-28T02:43:07.411Z,45.73
2019-02-28T02:45:43.405Z,45.93
2019-02-28T02:48:11.997Z,46.34
2019-02-28T02:50:42.758Z,48.49
2019-02-28T02:53:12.541Z,51.84
2019-02-28T02:55:42.345Z,51.84
2019-02-28T02:58:12.803Z,52.69
2019-02-28T03:00:49.839Z,53.61
2019-02-28T03:03:20.902Z,53.85
2019-02-28T03:05:52.842Z,54.47
2019-02-28T03:08:25.219Z,54.44
2019-02-28T03:10:59.877Z,54.24
2019-02-28T03:13:29.759Z,53.38
2019-02-28T03:16:01.236Z,52.54
2019-02-28T03:18:32.725Z,53.11
2019-02-28T03:21:03.235Z,52.00
2019-02-28T03:23:39.851Z,52.15
2019-02-28T03:26:11.354Z,52.00
2019-02-28T03:28:42.364Z,51.91
2019-02-28T03:31:16.238Z,52.08
2019-02-28T03:33:47.450Z,51.83
2019-02-28T03:36:20.375Z,51.83
2019-02-28T03:38:53.318Z,52.50
2019-02-28T03:41:25.320Z,52.54
2019-02-28T03:44:00.303Z,52.43
2019-02-28T03:46:32.819Z,52.50
2019-02-28T03:49:03.114Z,51.69
2019-02-28T03:51:32.883Z,51.63
2019-02-28T03:54:05.559Z,51.69
2019-02-28T03:56:40.747Z,51.18
2019-02-28T03:59:18.177Z,51.36
2019-02-28T04:01:45.472Z,51.78
2019-02-28T04:04:15.847Z,51.74
2019-02-28T04:06:47.074Z,51.75
2019-02-28T04:09:18.305Z,51.18
2019-02-28T04:11:51.104Z,50.58
2019-02-28T04:14:28.588Z,49.62
2019-02-28T04:17:08.226Z,49.32
2019-02-28T04:19:39.951Z,49.60
2019-02-28T04:22:19.555Z,49.27
2019-02-28T04:24:48.980Z,48.96
2019-02-28T04:27:23.642Z,48.16
2019-02-28T04:29:53.461Z,47.55
2019-02-28T04:32:31.183Z,47.25
2019-02-28T04:35:01.363Z,46.06
2019-02-28T04:37:32.169Z,45.46
2019-02-28T04:40:06.570Z,45.62
2019-02-28T04:42:38.999Z,45.62
2019-02-28T04:45:11.627Z,46.48
2019-02-28T04:47:41.773Z,48.08
2019-02-28T04:50:12.561Z,48.48
2019-02-28T04:52:46.737Z,48.55
2019-02-28T04:55:16.253Z,48.77
2019-02-28T04:57:46.005Z,49.31
2019-02-28T05:00:19.390Z,48.07
2019-02-28T05:02:53.718Z,49.43
2019-02-28T05:05:22.345Z,50.58
2019-02-28T05:07:52.121Z,51.84
2019-02-28T05:10:23.116Z,51.45
2019-02-28T05:12:57.388Z,48.92
2019-02-28T05:15:34.590Z,48.92
2019-02-28T05:18:06.063Z,46.26
2019-02-28T05:20:44.674Z,45.74
2019-02-28T05:23:10.968Z,46.00
2019-02-28T05:25:40.761Z,48.85
2019-02-28T05:28:11.414Z,48.13
2019-02-28T05:30:42.467Z,49.37
2019-02-28T05:33:12.550Z,51.74
2019-02-28T05:35:42.379Z,52.35
2019-02-28T05:38:12.220Z,51.27
2019-02-28T05:40:45.460Z,51.27
2019-02-28T05:43:16.067Z,51.32
2019-02-28T05:45:48.746Z,51.14
2019-02-28T05:48:19.060Z,51.14
2019-02-28T05:50:53.354Z,47.63
2019-02-28T05:53:22.374Z,45.42
2019-02-28T05:55:52.896Z,46.22
2019-02-28T05:58:23.917Z,45.46
2019-02-28T06:00:55.010Z,45.52
2019-02-28T06:03:35.711Z,45.24
2019-02-28T06:06:07.984Z,44.72
2019-02-28T06:08:39.046Z,44.00
2019-02-28T06:11:12.298Z,42.73
2019-02-28T06:13:42.142Z,42.63
2019-02-28T06:16:14.346Z,42.65
2019-02-28T06:18:44.340Z,42.39
2019-02-28T06:21:14.113Z,42.39
2019-02-28T06:23:45.775Z,42.38
2019-02-28T06:26:15.721Z,42.38
2019-02-28T06:28:45.529Z,43.40
2019-02-28T06:31:17.751Z,45.12
2019-02-28T06:33:49.706Z,43.97
2019-02-28T06:36:20.884Z,44.48
2019-02-28T06:38:51.480Z,43.11
2019-02-28T06:41:26.754Z,42.57
2019-02-28T06:44:01.769Z,41.73
2019-02-28T06:46:34.688Z,42.04
2019-02-28T06:49:09.414Z,43.34
2019-02-28T06:51:48.442Z,42.24
2019-02-28T06:54:22.502Z,42.12
2019-02-28T06:57:09.026Z,41.69
2019-02-28T06:59:38.923Z,41.43
2019-02-28T07:02:13.802Z,41.48
2019-02-28T07:07:39.201Z,40.01
2019-02-28T07:10:16.109Z,41.11
2019-02-28T07:12:49.967Z,40.77
2019-02-28T07:18:12.492Z,41.32
2019-02-28T07:20:43.703Z,42.11
2019-02-28T07:23:15.629Z,41.18
2019-02-28T07:25:47.390Z,42.11
2019-02-28T07:28:17.977Z,42.99
2019-02-28T07:30:50.466Z,39.46
2019-02-28T07:33:23.744Z,39.87
2019-02-28T07:35:57.559Z,39.09
2019-02-28T07:38:31.509Z,38.77
2019-02-28T07:41:04.969Z,39.44
2019-02-28T07:43:45.866Z,38.18
2019-02-28T07:46:12.302Z,37.59
2019-02-28T07:48:42.518Z,38.39
2019-02-28T07:51:12.659Z,38.46
2019-02-28T07:53:46.420Z,38.65
2019-02-28T07:56:20.567Z,38.54
2019-02-28T07:58:55.970Z,39.51
2019-02-28T08:01:31.872Z,37.38
2019-02-28T08:04:04.473Z,37.05
2019-02-28T08:06:39.213Z,37.78
2019-02-28T08:09:17.411Z,37.29
2019-02-28T08:12:04.827Z,37.92
2019-02-28T08:14:36.018Z,38.15
2019-02-28T08:17:09.977Z,38.64
2019-02-28T08:19:41.121Z,37.36
2019-02-28T08:22:11.874Z,39.23
2019-02-28T08:24:45.311Z,37.89
2019-02-28T08:27:19.048Z,37.98
2019-02-28T08:29:48.908Z,37.98
2019-02-28T08:32:23.918Z,38.40
2019-02-28T08:35:00.430Z,38.08
2019-02-28T08:37:33.385Z,38.98
2019-02-28T08:40:12.569Z,37.59
2019-02-28T08:42:43.396Z,37.35
2019-02-28T08:45:20.385Z,36.99
2019-02-28T08:47:55.409Z,38.20
2019-02-28T08:50:28.400Z,38.61
2019-02-28T08:53:06.528Z,38.03
2019-02-28T08:55:43.651Z,37.95
2019-02-28T08:58:13.702Z,37.27
2019-02-28T09:00:45.349Z,36.53
2019-02-28T09:03:24.310Z,37.96
2019-02-28T09:05:54.184Z,37.81
2019-02-28T09:08:25.314Z,37.18
2019-02-28T09:11:00.825Z,37.21
2019-02-28T09:13:30.631Z,36.96
2019-02-28T09:16:01.998Z,36.75
2019-02-28T09:18:36.300Z,36.44
2019-02-28T09:21:08.732Z,36.05
2019-02-28T09:23:38.632Z,35.42
2019-02-28T09:26:13.132Z,36.04
2019-02-28T09:28:44.446Z,36.23
2019-02-28T09:31:15.156Z,36.78
2019-02-28T09:33:45.013Z,35.05
2019-02-28T09:36:20.236Z,37.58
2019-02-28T09:38:46.290Z,36.08
2019-02-28T09:41:16.349Z,37.40
2019-02-28T09:43:46.100Z,36.76
2019-02-28T09:46:16.444Z,37.31
2019-02-28T09:48:47.672Z,37.59
2019-02-28T09:51:20.132Z,38.84
2019-02-28T09:53:51.001Z,37.10
2019-02-28T09:56:20.869Z,36.94
2019-02-28T09:58:50.623Z,37.96
2019-02-28T10:01:21.252Z,39.13
2019-02-28T10:03:55.470Z,37.67
2019-02-28T10:06:25.000Z,38.32
2019-02-28T10:08:54.844Z,37.88
2019-02-28T10:11:31.217Z,38.67
2019-02-28T10:13:59.766Z,37.92
2019-02-28T10:16:29.532Z,38.19
2019-02-28T10:19:05.283Z,39.72
2019-02-28T10:21:39.643Z,37.74
2019-02-28T10:24:10.612Z,37.70
2019-02-28T10:26:51.217Z,37.92
2019-02-28T10:29:20.887Z,37.99
2019-02-28T10:31:55.690Z,38.86
2019-02-28T10:34:26.377Z,37.95
2019-02-28T10:37:00.346Z,38.44
2019-02-28T10:39:30.906Z,39.23
2019-02-28T10:42:08.431Z,39.82
2019-02-28T10:44:41.121Z,40.63
2019-02-28T10:47:15.188Z,39.60
2019-02-28T10:49:45.735Z,41.58
2019-02-28T10:52:19.685Z,41.04
2019-02-28T10:54:55.161Z,42.17
2019-02-28T10:57:29.149Z,43.14
2019-02-28T11:00:03.932Z,42.21
2019-02-28T11:02:44.820Z,42.46
2019-02-28T11:05:29.198Z,42.50
2019-02-28T11:08:19.285Z,42.06
2019-02-28T11:11:10.591Z,41.25
2019-02-28T11:14:05.036Z,40.48
2019-02-28T11:16:58.903Z,40.68
2019-02-28T11:19:37.331Z,41.07
2019-02-28T11:22:31.750Z,41.47
2019-02-28T11:25:18.032Z,41.44
2019-02-28T11:28:17.736Z,40.85
2019-02-28T11:30:57.629Z,42.19
2019-02-28T11:33:40.562Z,42.17
2019-02-28T11:36:22.168Z,42.33
2019-02-28T11:39:03.944Z,42.39
2019-02-28T11:41:52.607Z,42.17
2019-02-28T11:44:47.726Z,41.63
2019-02-28T11:47:26.433Z,43.05
2019-02-28T11:50:03.552Z,42.86
2019-02-28T11:52:32.784Z,43.71
2019-02-28T11:55:06.695Z,42.83
2019-02-28T11:57:37.766Z,43.04
2019-02-28T12:00:15.198Z,42.91
2019-02-28T12:02:53.389Z,44.71
2019-02-28T12:05:23.165Z,44.81
2019-02-28T12:07:52.981Z,45.67
2019-02-28T12:10:22.989Z,44.52
2019-02-28T12:13:00.004Z,44.51
2019-02-28T12:15:32.975Z,45.29
2019-02-28T12:18:05.428Z,45.77
2019-02-28T12:20:41.248Z,45.43
2019-02-28T12:23:15.271Z,46.07
2019-02-28T12:25:45.022Z,45.24
2019-02-28T12:28:16.375Z,44.88
2019-02-28T12:30:50.455Z,44.36
2019-02-28T12:33:23.129Z,45.21
2019-02-28T12:35:54.780Z,45.61
2019-02-28T12:38:28.266Z,45.14
2019-02-28T12:40:59.252Z,43.55
2019-02-28T12:43:31.266Z,42.87
2019-02-28T12:46:01.020Z,43.29
2019-02-28T12:48:30.891Z,43.90
2019-02-28T12:51:02.278Z,43.03
2019-02-28T12:53:33.785Z,44.71
2019-02-28T12:56:04.587Z,43.77
2019-02-28T12:58:41.785Z,43.85
2019-02-28T13:01:11.501Z,43.78
2019-02-28T13:03:42.211Z,44.16
2019-02-28T13:06:15.681Z,42.88
2019-02-28T13:08:51.079Z,42.92
2019-02-28T13:11:21.364Z,43.67
2019-02-28T13:14:00.088Z,42.68
2019-02-28T13:16:43.694Z,42.74
2019-02-28T13:19:24.958Z,43.26
2019-02-28T13:22:05.181Z,43.59
2019-02-28T13:24:46.416Z,43.39
2019-02-28T13:27:23.171Z,43.65
2019-02-28T13:30:11.805Z,43.31
2019-02-28T13:32:51.270Z,42.85
2019-02-28T13:35:46.027Z,43.83
2019-02-28T13:38:23.238Z,43.29
2019-02-28T13:40:55.198Z,43.98
2019-02-28T13:43:37.398Z,44.63
2019-02-28T13:46:14.738Z,44.73
2019-02-28T13:48:59.427Z,44.33
2019-02-28T13:51:42.074Z,44.02
2019-02-28T13:54:22.729Z,44.54
2019-02-28T13:57:08.113Z,44.41
2019-02-28T13:59:40.954Z,44.39
2019-02-28T14:02:21.457Z,44.02
2019-02-28T14:05:03.037Z,44.71
2019-02-28T14:07:42.278Z,44.93
2019-02-28T14:10:24.945Z,44.94
2019-02-28T14:12:59.427Z,45.17
2019-02-28T14:15:47.975Z,44.27
2019-02-28T14:18:22.559Z,45.10
2019-02-28T14:20:59.555Z,44.34
2019-02-28T14:23:30.804Z,45.10
2019-02-28T14:26:01.215Z,45.65
2019-02-28T14:28:32.404Z,44.97
2019-02-28T14:31:03.776Z,45.38
2019-02-28T14:33:33.600Z,45.90
2019-02-28T14:36:03.379Z,47.30
2019-02-28T14:38:35.319Z,47.54
2019-02-28T14:41:05.179Z,47.61
2019-02-28T14:43:36.198Z,47.73
2019-02-28T14:46:10.171Z,48.04
2019-02-28T14:48:40.788Z,47.83
2019-02-28T14:51:10.612Z,47.37
2019-02-28T14:53:40.525Z,47.92
2019-02-28T14:56:10.430Z,47.87
2019-02-28T14:58:40.236Z,48.00
2019-02-28T15:01:10.681Z,48.07
2019-02-28T15:03:47.155Z,48.25
2019-02-28T15:06:18.705Z,49.05
2019-02-28T15:08:50.893Z,47.97
2019-02-28T15:11:19.983Z,47.82
2019-02-28T15:13:49.778Z,47.58
2019-02-28T15:16:21.557Z,47.57
2019-02-28T15:18:51.840Z,48.09
2019-02-28T15:21:21.591Z,48.00
2019-02-28T15:23:51.564Z,48.29
2019-02-28T15:26:22.933Z,48.54
2019-02-28T15:28:52.697Z,48.10
2019-02-28T15:31:22.472Z,48.39
2019-02-28T15:33:52.848Z,48.17
2019-02-28T15:36:24.323Z,48.44
2019-02-28T15:38:54.361Z,48.73
2019-02-28T15:41:24.197Z,48.68
2019-02-28T15:43:54.431Z,48.43
2019-02-28T15:46:24.208Z,47.90
2019-02-28T15:48:54.208Z,48.24
2019-02-28T15:51:25.651Z,48.27
2019-02-28T15:53:56.840Z,48.42
2019-02-28T15:56:26.754Z,48.83
2019-02-28T15:58:56.638Z,48.77
2019-02-28T16:01:28.647Z,48.56
2019-02-28T16:04:01.196Z,48.74
2019-02-28T16:06:31.419Z,48.93
2019-02-28T16:09:05.192Z,49.14
2019-02-28T16:11:40.937Z,48.88
2019-02-28T16:14:14.470Z,48.70
2019-02-28T16:16:41.543Z,47.44
2019-02-28T16:19:14.879Z,48.25
2019-02-28T16:21:52.813Z,47.80
2019-02-28T16:24:24.753Z,47.44
2019-02-28T16:27:01.433Z,46.85
2019-02-28T16:29:32.381Z,46.71
2019-02-28T16:32:03.945Z,46.58
2019-02-28T16:34:38.794Z,46.37
2019-02-28T16:37:11.445Z,46.60
2019-02-28T16:39:42.580Z,46.71
2019-02-28T16:42:17.459Z,46.65
2019-02-28T16:44:48.067Z,45.74
2019-02-28T16:47:24.478Z,46.29
2019-02-28T16:49:55.585Z,43.88
2019-02-28T16:52:27.331Z,44.92
2019-02-28T16:54:57.617Z,44.20
2019-02-28T16:57:32.586Z,45.43
2019-02-28T17:00:04.038Z,45.67
2019-02-28T17:02:37.188Z,45.90
2019-02-28T17:05:13.020Z,45.75
2019-02-28T17:07:44.544Z,44.43
2019-02-28T17:10:17.596Z,43.62
2019-02-28T17:12:59.528Z,42.95
2019-02-28T17:15:44.237Z,42.95
2019-02-28T17:18:21.649Z,43.03
2019-02-28T17:20:50.821Z,43.04
2019-02-28T17:23:22.737Z,42.76
2019-02-28T17:25:53.582Z,41.85
2019-02-28T17:28:34.652Z,41.79
2019-02-28T17:31:08.396Z,42.31
2019-02-28T17:33:37.684Z,42.21
2019-02-28T17:36:11.659Z,42.40
2019-02-28T17:38:41.526Z,42.54
2019-02-28T17:41:11.341Z,42.16
2019-02-28T17:43:41.459Z,42.14
2019-02-28T17:46:14.059Z,41.99
2019-02-28T17:48:59.131Z,41.73
2019-02-28T17:51:37.406Z,41.66
2019-02-28T17:54:13.139Z,41.87
2019-02-28T17:57:03.926Z,42.24
2019-02-28T17:59:56.697Z,41.89
2019-02-28T18:03:00.681Z,42.03
2019-02-28T18:05:46.283Z,42.47
2019-02-28T18:08:39.801Z,43.10
2019-02-28T18:11:12.497Z,43.09
2019-02-28T18:13:55.225Z,42.42
2019-02-28T18:16:47.214Z,41.04
2019-02-28T18:19:33.076Z,40.33
2019-02-28T18:22:12.760Z,41.42
2019-02-28T18:25:09.122Z,40.60
2019-02-28T18:28:00.997Z,40.35
2019-02-28T18:30:47.423Z,39.54
2019-02-28T18:33:19.430Z,39.53
2019-02-28T18:35:49.061Z,39.17
2019-02-28T18:38:18.829Z,38.81
2019-02-28T18:40:48.615Z,38.09
2019-02-28T18:43:18.531Z,37.06
2019-02-28T18:45:50.291Z,35.46
2019-02-28T18:48:20.125Z,36.06
2019-02-28T18:50:50.069Z,35.88
2019-02-28T18:53:21.500Z,35.12
2019-02-28T18:55:51.448Z,34.74
2019-02-28T18:58:23.149Z,34.32
2019-02-28T19:00:57.277Z,34.65
2019-02-28T19:03:31.736Z,35.58
2019-02-28T19:06:03.556Z,36.16
2019-02-28T19:08:38.867Z,36.81
2019-02-28T19:11:11.123Z,37.99
2019-02-28T19:13:43.232Z,38.36
2019-02-28T19:16:19.935Z,38.74
2019-02-28T19:18:55.395Z,38.13
2019-02-28T19:21:25.205Z,38.07
2019-02-28T19:23:55.785Z,38.15
2019-02-28T19:26:25.577Z,38.62
2019-02-28T19:28:55.706Z,39.17
2019-02-28T19:31:26.736Z,39.67
2019-02-28T19:33:56.556Z,39.77
2019-02-28T19:36:26.314Z,39.51
2019-02-28T19:38:56.096Z,39.29
2019-02-28T19:41:26.165Z,39.53
2019-02-28T19:43:56.051Z,40.13
2019-02-28T19:46:25.820Z,40.98
2019-02-28T19:48:57.703Z,41.12
2019-02-28T19:51:27.626Z,42.51
2019-02-28T19:54:08.099Z,43.39
2019-02-28T19:56:44.010Z,43.77
2019-02-28T19:59:14.975Z,43.73
2019-02-28T20:01:45.466Z,44.06
2019-02-28T20:04:18.694Z,44.33
2019-02-28T20:06:57.047Z,44.65
2019-02-28T20:09:27.875Z,44.92
2019-02-28T20:12:02.919Z,45.04
2019-02-28T20:14:34.613Z,45.26
2019-02-28T20:17:21.982Z,45.52
2019-02-28T20:19:54.280Z,45.95
2019-02-28T20:22:37.288Z,46.72
2019-02-28T20:25:16.449Z,48.71
2019-02-28T20:27:51.861Z,50.33
2019-02-28T20:30:25.082Z,49.62
2019-02-28T20:33:00.908Z,49.83
2019-02-28T20:35:34.428Z,49.99
2019-02-28T20:38:04.489Z,49.28
2019-02-28T20:40:41.543Z,48.21
2019-02-28T20:43:13.435Z,49.39
2019-02-28T20:45:44.007Z,50.01
2019-02-28T20:48:16.794Z,51.08
2019-02-28T20:50:49.949Z,51.37
2019-02-28T20:53:24.427Z,51.89
2019-02-28T20:55:54.483Z,52.40
2019-02-28T20:58:26.714Z,52.33
2019-02-28T21:00:56.463Z,52.66
2019-02-28T21:03:31.492Z,52.76
2019-02-28T21:06:02.728Z,54.98
2019-02-28T21:08:32.440Z,58.06
2019-02-28T21:11:02.267Z,55.29
2019-02-28T21:13:32.086Z,57.75
2019-02-28T21:16:01.887Z,61.01
2019-02-28T21:18:31.697Z,63.54
2019-02-28T21:21:01.442Z,63.83
2019-02-28T21:23:33.407Z,63.00
2019-02-28T21:26:11.356Z,61.00
2019-02-28T21:28:44.775Z,60.42
2019-02-28T21:31:14.645Z,60.69
2019-02-28T21:33:44.453Z,63.62
2019-02-28T21:36:14.262Z,69.69
2019-02-28T21:38:44.009Z,67.60
2019-02-28T21:41:13.930Z,69.35
2019-02-28T21:43:44.018Z,73.98
2019-02-28T21:46:14.170Z,77.78
2019-02-28T21:48:44.766Z,79.71
2019-02-28T21:51:17.351Z,83.79
2019-02-28T21:53:48.413Z,82.66
2019-02-28T21:56:19.417Z,75.85
2019-02-28T21:58:51.738Z,77.57
2019-02-28T22:01:26.831Z,79.32
2019-02-28T22:04:03.376Z,74.52
2019-02-28T22:06:39.271Z,71.95
2019-02-28T22:09:12.694Z,70.95
2019-02-28T22:11:46.212Z,74.55
2019-02-28T22:14:16.797Z,76.22
2019-02-28T22:16:48.526Z,76.34
2019-02-28T22:19:20.367Z,74.73
2019-02-28T22:21:55.281Z,73.97
2019-02-28T22:24:29.247Z,73.51
2019-02-28T22:27:13.305Z,73.55
2019-02-28T22:29:45.593Z,73.88
2019-02-28T22:32:24.513Z,74.20
2019-02-28T22:34:55.927Z,75.11
2019-02-28T22:37:36.713Z,83.05
2019-02-28T22:40:06.779Z,85.58
2019-02-28T22:42:40.187Z,91.23
2019-02-28T22:45:11.461Z,94.28
2019-02-28T22:47:44.903Z,94.44
2019-02-28T22:50:14.819Z,96.19
2019-02-28T22:52:44.571Z,92.42
2019-02-28T22:55:14.344Z,84.74
2019-02-28T22:57:44.354Z,82.77
2019-02-28T23:00:39.666Z,82.87
2019-02-28T23:03:10.996Z,80.65
2019-02-28T23:05:44.757Z,76.76
2019-02-28T23:08:14.989Z,78.04
2019-02-28T23:10:44.761Z,78.73
2019-02-28T23:13:14.547Z,81.04
2019-02-28T23:15:44.376Z,79.64
2019-02-28T23:18:14.120Z,82.91
2019-02-28T23:20:43.864Z,84.73
2019-02-28T23:23:13.689Z,85.35
2019-02-28T23:25:43.477Z,81.39
2019-02-28T23:28:25.122Z,74.97
2019-02-28T23:31:13.130Z,74.63
2019-02-28T23:33:43.619Z,75.15
2019-02-28T23:36:13.577Z,75.77
2019-02-28T23:38:43.380Z,76.12
2019-02-28T23:41:13.179Z,80.45
2019-02-28T23:43:42.966Z,74.66
2019-02-28T23:46:14.704Z,74.56
2019-02-28T23:48:44.529Z,76.07
2019-02-28T23:51:14.286Z,76.48
2019-02-28T23:53:44.029Z,75.90
2019-02-28T23:56:14.251Z,75.97
2019-02-28T23:58:44.014Z,74.92
